Time;durP1;ratioP1;P1;durP2;ratioP2;P2;SDS_P1;SDS_P2;PMS_P1;PMS_P2;Temp;Humidity;BMP_temperature;BMP_pressure;BME280_temperature;BME280_humidity;BME280_pressure;Samples;Min_cycle;Max_cycle;Signal;HPM_P1;HPM_P2
2023/12/09 00:01:15;;;;;;;30.63;9.25;;;;;;;7.94;100.00;97515.16;4886391;29;20089;-81
2023/12/09 00:04:08;;;;;;;28.73;8.25;;;;;;;7.88;100.00;97505.59;4883850;29;20111;-81
2023/12/09 00:07:10;;;;;;;37.15;8.77;;;;;;;7.73;100.00;97514.53;4886648;29;20047;-81
2023/12/09 00:09:54;;;;;;;30.02;7.68;;;;;;;7.70;100.00;97514.97;4885473;29;20103;-82
2023/12/09 00:12:54;;;;;;;26.38;8.10;;;;;;;7.67;100.00;97510.97;4880457;29;20182;-81
2023/12/09 00:15:38;;;;;;;28.90;7.10;;;;;;;7.56;100.00;97504.63;4884554;29;20036;-82
2023/12/09 00:18:22;;;;;;;29.52;8.57;;;;;;;7.76;100.00;97524.56;4883039;29;20140;-82
2023/12/09 00:21:06;;;;;;;26.20;8.13;;;;;;;7.62;100.00;97523.06;4886457;29;20132;-82
2023/12/09 00:23:50;;;;;;;31.10;7.65;;;;;;;7.91;100.00;97528.66;4886558;29;20055;-82
2023/12/09 00:26:36;;;;;;;24.00;7.55;;;;;;;7.97;100.00;97525.19;4884971;29;20063;-82
2023/12/09 00:29:42;;;;;;;28.20;8.98;;;;;;;7.84;100.00;97531.31;4882697;29;20747;-82
2023/12/09 00:32:33;;;;;;;26.35;7.97;;;;;;;7.90;100.00;97503.53;4885107;29;20049;-81
2023/12/09 00:35:21;;;;;;;24.25;7.28;;;;;;;8.03;100.00;97516.47;4883786;29;20056;-82
2023/12/09 00:38:05;;;;;;;26.55;8.38;;;;;;;7.88;100.00;97501.13;4882687;29;20089;-82
2023/12/09 00:40:52;;;;;;;34.30;8.05;;;;;;;7.87;100.00;97496.94;4888375;29;20510;-81
2023/12/09 00:43:36;;;;;;;27.25;7.88;;;;;;;7.84;100.00;97494.75;4885302;29;20044;-82
2023/12/09 00:46:21;;;;;;;26.30;6.78;;;;;;;7.91;100.00;97494.69;4887811;29;20104;-81
2023/12/09 00:49:06;;;;;;;30.88;7.47;;;;;;;7.71;100.00;97500.88;4878554;29;20060;-81
2023/12/09 00:51:50;;;;;;;24.50;7.68;;;;;;;7.88;100.00;97506.38;4886557;29;20680;-80
2023/12/09 00:54:34;;;;;;;23.95;7.60;;;;;;;7.83;100.00;97506.22;4883174;29;20506;-80
2023/12/09 00:57:19;;;;;;;30.73;8.10;;;;;;;7.88;100.00;97505.59;4886209;29;20521;-80
2023/12/09 01:00:04;;;;;;;31.85;9.75;;;;;;;7.89;100.00;97501.94;4881575;29;20104;-80
2023/12/09 01:02:48;;;;;;;33.50;9.30;;;;;;;7.82;100.00;97502.00;4885575;29;20559;-81
2023/12/09 01:05:32;;;;;;;36.67;10.23;;;;;;;7.86;100.00;97498.75;4886290;29;20036;-80
2023/12/09 01:08:15;;;;;;;29.25;9.15;;;;;;;7.85;100.00;97497.13;4886238;29;21082;-81
2023/12/09 01:10:59;;;;;;;33.28;8.10;;;;;;;7.79;100.00;97505.84;4880767;29;20056;-81
2023/12/09 01:13:43;;;;;;;27.58;8.13;;;;;;;7.73;100.00;97488.41;4880550;29;20490;-80
2023/12/09 01:16:27;;;;;;;25.23;9.10;;;;;;;7.83;100.00;97498.38;4881883;29;20552;-81
2023/12/09 01:19:12;;;;;;;35.08;8.43;;;;;;;7.78;100.00;97475.50;4883667;29;20513;-81
2023/12/09 01:21:56;;;;;;;34.63;8.52;;;;;;;7.86;100.00;97483.09;4886234;29;20116;-81
2023/12/09 01:24:43;;;;;;;29.23;7.82;;;;;;;8.06;100.00;97463.81;4882245;29;20493;-80
2023/12/09 01:27:29;;;;;;;37.67;8.98;;;;;;;7.87;100.00;97465.56;4881458;29;20060;-81
2023/12/09 01:30:13;;;;;;;32.95;9.70;;;;;;;8.01;100.00;97458.41;4888547;29;20040;-80
2023/12/09 01:33:00;;;;;;;38.92;9.45;;;;;;;7.98;100.00;97438.75;4884339;29;20150;-82
2023/12/09 01:35:44;;;;;;;31.40;8.75;;;;;;;7.97;100.00;97444.19;4885475;29;20089;-83
2023/12/09 01:38:28;;;;;;;34.20;8.52;;;;;;;8.00;100.00;97456.81;4890095;29;20125;-82
2023/12/09 01:41:12;;;;;;;34.47;8.52;;;;;;;7.82;100.00;97437.47;4886624;29;20124;-82
2023/12/09 01:43:56;;;;;;;33.30;8.10;;;;;;;7.84;100.00;97429.44;4880432;29;20052;-81
2023/12/09 01:46:40;;;;;;;37.85;9.23;;;;;;;7.82;100.00;97424.41;4885068;29;20063;-82
2023/12/09 01:49:25;;;;;;;31.92;8.10;;;;;;;7.73;100.00;97415.28;4842823;29;1217728;-82
2023/12/09 01:52:09;;;;;;;33.88;7.95;;;;;;;7.74;100.00;97422.09;4880343;29;20463;-81
2023/12/09 01:54:53;;;;;;;30.13;8.15;;;;;;;7.79;100.00;97419.63;4885882;29;20050;-81
2023/12/09 01:57:37;;;;;;;39.90;9.45;;;;;;;7.76;100.00;97430.53;4888218;29;20119;-81
2023/12/09 02:00:24;;;;;;;37.65;9.88;;;;;;;7.77;100.00;97432.13;4883304;29;20048;-81
2023/12/09 02:03:08;;;;;;;30.33;8.63;;;;;;;7.78;100.00;97419.88;4887221;29;20035;-82
2023/12/09 02:05:55;;;;;;;35.78;9.20;;;;;;;7.81;100.00;97428.06;4888031;29;20051;-82
2023/12/09 02:08:39;;;;;;;32.30;10.05;;;;;;;7.95;100.00;97427.94;4879667;29;20501;-83
2023/12/09 02:11:50;;;;;;;32.35;9.77;;;;;;;8.02;100.00;97428.66;4883905;29;20051;-81
2023/12/09 02:14:58;;;;;;;25.38;9.43;;;;;;;8.31;100.00;97421.09;4899105;29;20176;-81
2023/12/09 02:18:07;;;;;;;33.92;10.50;;;;;;;8.49;100.00;97425.50;4887010;29;20120;-82
2023/12/09 02:20:51;;;;;;;47.53;10.80;;;;;;;8.54;100.00;97433.50;4885918;29;20043;-83
2023/12/09 02:23:35;;;;;;;31.52;9.98;;;;;;;8.63;100.00;97423.53;4887193;29;20509;-82
2023/12/09 02:26:28;;;;;;;26.95;9.30;;;;;;;8.55;100.00;97405.53;4882084;29;20066;-81
2023/12/09 02:29:12;;;;;;;31.10;9.38;;;;;;;8.47;100.00;97408.44;4884655;29;20060;-81
2023/12/09 02:32:02;;;;;;;32.00;10.40;;;;;;;8.59;100.00;97422.38;4878144;29;20040;-80
2023/12/09 02:34:47;;;;;;;40.20;11.45;;;;;;;8.57;100.00;97403.50;4880305;29;20107;-81
2023/12/09 02:37:32;;;;;;;33.08;10.40;;;;;;;8.66;100.00;97417.06;4884581;29;20087;-81
2023/12/09 02:40:18;;;;;;;32.67;10.05;;;;;;;8.70;100.00;97419.03;4889484;29;20048;-79
2023/12/09 02:43:03;;;;;;;29.27;10.15;;;;;;;8.82;100.00;97411.22;4884634;29;20044;-80
2023/12/09 02:45:47;;;;;;;29.05;10.77;;;;;;;8.82;100.00;97416.44;4885197;29;20124;-81
2023/12/09 02:48:31;;;;;;;37.20;12.40;;;;;;;8.93;100.00;97414.88;4882758;29;20522;-81
2023/12/09 02:51:16;;;;;;;28.70;11.18;;;;;;;8.89;100.00;97405.88;4879900;29;20052;-82
2023/12/09 02:54:00;;;;;;;28.05;10.45;;;;;;;8.92;100.00;97408.03;4882558;29;20055;-81
2023/12/09 02:56:44;;;;;;;25.83;10.55;;;;;;;8.93;100.00;97396.56;4882960;29;20044;-82
2023/12/09 02:59:30;;;;;;;28.50;11.45;;;;;;;8.99;100.00;97408.75;4883795;29;20047;-81
2023/12/09 03:02:14;;;;;;;26.38;11.00;;;;;;;8.87;100.00;97418.41;4883693;29;20058;-81
2023/12/09 03:04:58;;;;;;;32.67;13.23;;;;;;;9.05;100.00;97424.59;4881861;29;20048;-80
2023/12/09 03:07:42;;;;;;;31.92;11.13;;;;;;;9.03;100.00;97405.66;4882435;29;20100;-79
2023/12/09 03:10:26;;;;;;;34.63;9.60;;;;;;;9.03;100.00;97392.56;4880081;29;20048;-80
2023/12/09 03:13:10;;;;;;;26.88;10.48;;;;;;;9.00;100.00;97388.59;4883828;29;20044;-80
2023/12/09 03:15:54;;;;;;;30.25;9.68;;;;;;;9.04;100.00;97391.56;4884688;29;20064;-80
2023/12/09 03:18:39;;;;;;;29.65;10.30;;;;;;;9.09;100.00;97379.41;4884441;29;20051;-80
2023/12/09 03:21:23;;;;;;;47.92;15.07;;;;;;;9.13;100.00;97377.91;4887592;29;20410;-80
2023/12/09 03:24:06;;;;;;;28.95;10.45;;;;;;;9.07;100.00;97370.97;4882076;29;20079;-81
2023/12/09 03:26:51;;;;;;;264.75;28.10;;;;;;;9.11;100.00;97368.72;4887069;29;20079;-81
2023/12/09 03:29:36;;;;;;;35.42;11.52;;;;;;;9.17;100.00;97353.94;4885135;29;20087;-81
2023/12/09 03:32:20;;;;;;;32.92;10.70;;;;;;;9.07;100.00;97338.78;4897564;29;20056;-82
2023/12/09 03:35:05;;;;;;;31.35;10.27;;;;;;;8.98;100.00;97336.47;4889865;29;20139;-81
2023/12/09 03:37:49;;;;;;;26.65;10.05;;;;;;;9.18;100.00;97340.59;4886159;29;20076;-81
2023/12/09 03:40:33;;;;;;;28.65;9.73;;;;;;;9.08;100.00;97325.44;4885689;29;20113;-81
2023/12/09 03:43:17;;;;;;;28.88;11.07;;;;;;;8.99;100.00;97317.13;4886600;29;20054;-80
2023/12/09 03:46:01;;;;;;;32.13;10.35;;;;;;;8.97;100.00;97327.03;4884632;29;20080;-80
2023/12/09 03:48:45;;;;;;;30.95;10.40;;;;;;;9.08;100.00;97316.81;4889408;29;20193;-80
2023/12/09 03:51:30;;;;;;;35.05;11.45;;;;;;;8.93;100.00;97307.59;4889347;29;20064;-80
2023/12/09 03:54:13;;;;;;;32.28;10.35;;;;;;;9.02;100.00;97299.38;4884502;29;20043;-81
2023/12/09 03:56:57;;;;;;;32.00;11.55;;;;;;;8.90;100.00;97276.66;4882999;29;20397;-81
2023/12/09 03:59:41;;;;;;;33.92;11.63;;;;;;;9.06;100.00;97266.53;4888975;29;20051;-81
2023/12/09 04:02:25;;;;;;;28.52;11.05;;;;;;;8.98;100.00;97251.97;4884085;29;20399;-81
2023/12/09 04:05:09;;;;;;;31.77;12.40;;;;;;;8.87;100.00;97219.53;4884159;29;20411;-81
2023/12/09 04:08:01;;;;;;;35.85;12.32;;;;;;;9.02;100.00;97226.13;4886238;29;20051;-81
2023/12/09 04:10:45;;;;;;;36.80;11.25;;;;;;;9.05;100.00;97228.28;4882070;29;20063;-81
2023/12/09 04:13:37;;;;;;;37.53;12.25;;;;;;;9.15;100.00;97210.19;4882778;29;20048;-81
2023/12/09 04:16:26;;;;;;;36.50;11.25;;;;;;;8.98;100.00;97216.09;4888680;29;20060;-81
2023/12/09 04:19:10;;;;;;;34.20;11.35;;;;;;;9.00;100.00;97210.66;4881969;29;20047;-81
2023/12/09 04:21:54;;;;;;;38.53;11.35;;;;;;;8.81;100.00;97209.97;4885540;29;20040;-80
2023/12/09 04:24:40;;;;;;;34.50;11.20;;;;;;;8.74;100.00;97204.06;4885071;29;20096;-81
2023/12/09 04:27:24;;;;;;;25.63;9.85;;;;;;;8.96;100.00;97215.53;4889035;29;20071;-81
2023/12/09 04:30:09;;;;;;;28.40;9.82;;;;;;;8.83;100.00;97202.69;4884346;29;20108;-82
2023/12/09 04:32:53;;;;;;;32.60;11.35;;;;;;;8.61;100.00;97179.72;4888486;29;20051;-81
2023/12/09 04:35:37;;;;;;;25.88;10.18;;;;;;;8.75;100.00;97169.03;4884845;29;20418;-81
2023/12/09 04:38:21;;;;;;;30.63;9.43;;;;;;;8.81;100.00;97183.81;4881284;29;20067;-81
2023/12/09 04:41:05;;;;;;;26.48;8.95;;;;;;;8.77;100.00;97162.56;4881068;29;20524;-81
2023/12/09 04:43:50;;;;;;;29.33;8.57;;;;;;;8.62;100.00;97155.16;4884245;29;20092;-81
2023/12/09 04:46:35;;;;;;;27.20;7.50;;;;;;;8.75;100.00;97143.69;4887405;29;20063;-81
2023/12/09 04:49:19;;;;;;;27.92;8.60;;;;;;;8.75;100.00;97143.69;4885512;29;20067;-80
2023/12/09 04:52:04;;;;;;;21.10;6.80;;;;;;;8.84;100.00;97138.88;4886843;29;20105;-82
2023/12/09 04:54:48;;;;;;;18.17;6.10;;;;;;;8.84;100.00;97120.56;4885116;29;20055;-81
2023/12/09 04:57:32;;;;;;;18.45;6.07;;;;;;;8.83;100.00;97134.66;4882703;29;20048;-81
2023/12/09 05:00:16;;;;;;;21.85;6.30;;;;;;;8.88;100.00;97128.75;4883497;29;20036;-80
2023/12/09 05:03:00;;;;;;;18.98;6.30;;;;;;;8.90;100.00;97132.75;4889579;29;20040;-80
2023/12/09 05:05:44;;;;;;;16.02;5.30;;;;;;;8.93;100.00;97134.88;4885836;29;20502;-81
2023/12/09 05:08:28;;;;;;;18.00;6.03;;;;;;;8.89;100.00;97128.53;4884590;29;20563;-81
2023/12/09 05:11:12;;;;;;;16.08;4.97;;;;;;;9.04;100.00;97119.38;4885711;29;20514;-81
2023/12/09 05:13:56;;;;;;;18.52;5.47;;;;;;;9.02;100.00;97121.44;4881546;29;20093;-81
2023/12/09 05:16:40;;;;;;;28.58;6.10;;;;;;;8.94;100.00;97105.06;4878037;29;20083;-81
2023/12/09 05:19:24;;;;;;;23.05;5.32;;;;;;;9.09;100.00;97093.31;4883807;29;20047;-79
2023/12/09 05:22:07;;;;;;;18.75;5.68;;;;;;;9.12;100.00;97080.56;4887530;29;20080;-80
2023/12/09 05:24:52;;;;;;;27.33;5.72;;;;;;;9.14;100.00;97064.63;4882611;29;20402;-80
2023/12/09 05:27:36;;;;;;;13.30;4.55;;;;;;;9.17;100.00;97066.78;4882794;29;20048;-80
2023/12/09 05:30:20;;;;;;;19.20;5.25;;;;;;;9.17;100.00;97055.53;4886074;29;20141;-80
2023/12/09 05:33:04;;;;;;;25.55;6.05;;;;;;;9.16;100.00;97046.06;4886782;29;20096;-81
2023/12/09 05:35:48;;;;;;;19.33;5.30;;;;;;;9.15;100.00;97032.19;4882498;29;20092;-81
2023/12/09 05:38:32;;;;;;;23.90;5.25;;;;;;;9.24;100.00;97036.03;4888703;29;20096;-81
2023/12/09 05:41:16;;;;;;;14.60;5.72;;;;;;;9.22;100.00;97032.03;4881631;29;20448;-81
2023/12/09 05:44:00;;;;;;;21.23;5.93;;;;;;;9.00;100.00;97024.84;4877570;29;20104;-81
2023/12/09 05:46:44;;;;;;;19.35;6.50;;;;;;;8.86;100.00;97021.72;4890016;29;20391;-80
2023/12/09 05:49:28;;;;;;;18.35;6.35;;;;;;;8.84;100.00;97013.28;4884001;29;20052;-80
2023/12/09 05:52:12;;;;;;;17.20;6.05;;;;;;;8.91;100.00;97011.34;4879352;29;20408;-81
2023/12/09 05:54:56;;;;;;;27.27;7.22;;;;;;;8.99;100.00;97008.34;4887424;29;20079;-79
2023/12/09 05:57:40;;;;;;;20.27;7.28;;;;;;;8.95;100.00;96996.75;4882795;29;20136;-80
2023/12/09 06:00:24;;;;;;;16.60;8.15;;;;;;;8.94;100.00;96984.72;4885352;29;20480;-80
2023/12/09 06:03:08;;;;;;;19.70;7.40;;;;;;;8.84;100.00;96974.06;4881011;29;20043;-81
2023/12/09 06:05:52;;;;;;;21.77;6.75;;;;;;;8.90;100.00;96962.66;4875204;29;21544;-81
2023/12/09 06:08:36;;;;;;;19.00;7.18;;;;;;;8.76;100.00;96945.66;4886363;29;20103;-82
2023/12/09 06:11:20;;;;;;;22.45;8.20;;;;;;;8.76;100.00;96941.25;4874965;29;20406;-81
2023/12/09 06:14:07;;;;;;;18.45;6.85;;;;;;;8.80;100.00;96941.53;4885242;29;20051;-82
2023/12/09 06:16:51;;;;;;;34.88;7.85;;;;;;;8.70;100.00;96927.28;4884416;29;20118;-84
2023/12/09 06:19:35;;;;;;;22.83;7.07;;;;;;;8.76;100.00;96919.50;4882658;29;20051;-82
2023/12/09 06:22:19;;;;;;;23.25;7.15;;;;;;;8.67;100.00;96926.94;4884889;29;20048;-80
2023/12/09 06:25:03;;;;;;;26.25;7.35;;;;;;;8.73;100.00;96923.38;4882532;29;20071;-80
2023/12/09 06:27:47;;;;;;;22.73;7.70;;;;;;;8.89;100.00;96919.22;4879723;29;20068;-81
2023/12/09 06:30:33;;;;;;;14.60;6.85;;;;;;;8.90;100.00;96902.50;4883173;29;20055;-81
2023/12/09 06:33:20;;;;;;;19.35;7.03;;;;;;;8.83;100.00;96893.97;4881116;29;20100;-81
2023/12/09 06:36:05;;;;;;;17.55;6.10;;;;;;;8.90;100.00;96894.66;4882349;29;20523;-80
2023/12/09 06:38:49;;;;;;;17.25;6.55;;;;;;;8.90;100.00;96889.41;4885763;29;20178;-80
2023/12/09 06:41:33;;;;;;;25.10;7.60;;;;;;;8.76;100.00;96882.88;4882902;29;20511;-80
2023/12/09 06:44:17;;;;;;;11.93;5.78;;;;;;;8.88;100.00;96880.19;4888622;29;20047;-79
2023/12/09 06:47:01;;;;;;;30.48;8.10;;;;;;;8.73;100.00;96865.84;4888870;29;20501;-81
2023/12/09 06:49:45;;;;;;;43.90;11.02;;;;;;;8.90;100.00;96858.03;4886306;29;20059;-81
2023/12/09 06:52:29;;;;;;;29.83;8.23;;;;;;;8.97;100.00;96837.72;4890555;29;20055;-81
2023/12/09 06:55:13;;;;;;;183.45;15.25;;;;;;;8.93;100.00;96818.28;4884865;29;20447;-80
2023/12/09 06:57:57;;;;;;;32.45;10.43;;;;;;;8.91;100.00;96806.47;4891667;29;20550;-82
2023/12/09 07:00:40;;;;;;;16.20;6.78;;;;;;;9.01;100.00;96796.16;4886769;29;20055;-82
2023/12/09 07:03:25;;;;;;;13.02;6.95;;;;;;;8.78;100.00;96797.13;4887365;29;20044;-82
2023/12/09 07:06:09;;;;;;;17.00;8.63;;;;;;;8.89;100.00;96775.34;4886818;29;20179;-81
2023/12/09 07:08:54;;;;;;;12.75;7.05;;;;;;;8.94;100.00;96759.69;4888909;29;20052;-82
2023/12/09 07:11:38;;;;;;;18.00;6.85;;;;;;;8.85;100.00;96746.22;4887270;29;20479;-81
2023/12/09 07:14:22;;;;;;;14.18;6.60;;;;;;;9.06;100.00;96745.75;4882587;29;20084;-81
2023/12/09 07:17:06;;;;;;;37.40;9.40;;;;;;;8.88;100.00;96731.88;4890208;29;20407;-81
2023/12/09 07:19:52;;;;;;;21.90;9.07;;;;;;;8.75;100.00;96716.53;4886694;29;20093;-83
2023/12/09 07:22:36;;;;;;;44.50;10.05;;;;;;;8.93;100.00;96699.75;4883478;29;20411;-80
2023/12/09 07:25:21;;;;;;;15.35;6.10;;;;;;;8.97;100.00;96683.34;4886722;29;20063;-81
2023/12/09 07:28:05;;;;;;;14.07;6.10;;;;;;;8.83;100.00;96701.22;4881664;29;20104;-82
2023/12/09 07:30:49;;;;;;;8.77;5.25;;;;;;;9.05;100.00;96684.75;4885376;29;20048;-82
2023/12/09 07:33:33;;;;;;;15.75;7.38;;;;;;;9.04;100.00;96659.63;4885846;29;20051;-83
2023/12/09 07:36:17;;;;;;;15.30;7.03;;;;;;;9.18;100.00;96649.56;4884815;29;20056;-84
2023/12/09 07:39:01;;;;;;;14.25;6.95;;;;;;;9.26;100.00;96646.53;4888921;29;20465;-83
2023/12/09 07:41:48;;;;;;;12.68;6.95;;;;;;;9.26;100.00;96635.25;4878552;29;20400;-82
2023/12/09 07:44:33;;;;;;;14.00;6.55;;;;;;;9.16;100.00;96620.22;4884514;29;20124;-83
2023/12/09 07:47:17;;;;;;;14.10;6.97;;;;;;;9.11;100.00;96601.88;4885737;29;20047;-80
2023/12/09 07:50:01;;;;;;;14.57;7.13;;;;;;;9.31;100.00;96601.28;4884540;29;20541;-79
2023/12/09 07:52:44;;;;;;;16.08;7.70;;;;;;;9.32;100.00;96583.75;4881121;29;20506;-80
2023/12/09 07:55:28;;;;;;;11.60;6.30;;;;;;;9.26;100.00;96588.94;4881190;29;20059;-80
2023/12/09 07:58:12;;;;;;;10.27;5.88;;;;;;;9.20;100.00;96592.53;4881580;29;20089;-82
2023/12/09 08:00:59;;;;;;;11.82;5.55;;;;;;;9.05;100.00;96581.91;4884060;29;20075;-84
2023/12/09 08:03:43;;;;;;;9.77;5.18;;;;;;;9.39;100.00;96571.25;4885387;29;20403;-80
2023/12/09 08:06:27;;;;;;;11.07;5.72;;;;;;;9.46;100.00;96557.94;4882174;29;20096;-82
2023/12/09 08:09:11;;;;;;;7.57;5.30;;;;;;;9.40;100.00;96557.91;4883154;29;20132;-83
2023/12/09 08:11:55;;;;;;;11.50;5.50;;;;;;;9.37;100.00;96521.75;4882444;29;20112;-82
2023/12/09 08:14:39;;;;;;;7.30;5.05;;;;;;;9.41;100.00;96508.94;4883384;29;20043;-81
2023/12/09 08:17:23;;;;;;;10.07;6.18;;;;;;;9.48;100.00;96496.44;4887964;29;20052;-81
2023/12/09 08:20:08;;;;;;;7.63;5.25;;;;;;;9.50;100.00;96498.81;4885253;29;20506;-79
2023/12/09 08:22:52;;;;;;;12.10;5.65;;;;;;;9.52;100.00;96481.81;4884254;29;20490;-80
2023/12/09 08:25:36;;;;;;;8.68;5.22;;;;;;;9.62;100.00;96496.81;4888348;29;20059;-80
2023/12/09 08:28:20;;;;;;;7.50;5.10;;;;;;;9.42;100.00;96487.75;4883269;29;20075;-79
2023/12/09 08:31:06;;;;;;;7.85;5.60;;;;;;;9.63;100.00;96466.16;4883106;29;20067;-80
2023/12/09 08:33:51;;;;;;;8.00;5.15;;;;;;;9.56;100.00;96440.97;4881344;29;20056;-79
2023/12/09 08:36:35;;;;;;;9.60;4.95;;;;;;;9.73;100.00;96429.56;4885852;29;20116;-83
2023/12/09 08:39:22;;;;;;;6.57;4.30;;;;;;;9.66;100.00;96424.53;4882017;29;20067;-82
2023/12/09 08:42:06;;;;;;;6.30;4.30;;;;;;;9.70;100.00;96430.06;4885395;29;20074;-82
2023/12/09 08:44:50;;;;;;;7.28;3.85;;;;;;;9.71;100.00;96429.03;4882772;29;20105;-81
2023/12/09 08:47:34;;;;;;;5.15;4.00;;;;;;;9.63;100.00;96422.44;4881269;29;20391;-80
2023/12/09 08:50:19;;;;;;;5.82;4.65;;;;;;;9.61;100.00;96406.19;4884391;29;20108;-82
2023/12/09 08:53:03;;;;;;;6.85;4.60;;;;;;;9.81;100.00;96404.72;4879099;29;20064;-84
2023/12/09 08:55:46;;;;;;;5.88;4.75;;;;;;;10.02;100.00;96404.81;4881923;29;20097;-83
2023/12/09 08:58:31;;;;;;;5.97;4.30;;;;;;;9.83;100.00;96386.91;4881261;29;20092;-82
2023/12/09 09:01:15;;;;;;;7.68;5.35;;;;;;;10.04;100.00;96392.25;4885684;29;20740;-81
2023/12/09 09:03:59;;;;;;;8.73;5.25;;;;;;;10.03;100.00;96365.25;4883659;29;20150;-86
2023/12/09 09:06:43;;;;;;;8.40;5.57;;;;;;;10.14;100.00;96366.09;4881639;29;20145;-82
2023/12/09 09:09:27;;;;;;;12.43;5.93;;;;;;;10.07;100.00;96345.34;4884927;29;20093;-82
2023/12/09 09:12:11;;;;;;;10.65;5.97;;;;;;;10.08;100.00;96341.69;4885568;29;20111;-81
2023/12/09 09:14:56;;;;;;;7.22;4.90;;;;;;;10.07;100.00;96321.75;4884369;29;20142;-81
2023/12/09 09:17:40;;;;;;;7.65;5.20;;;;;;;10.08;100.00;96320.72;4881788;29;20055;-81
2023/12/09 09:20:24;;;;;;;8.35;3.90;;;;;;;10.04;100.00;96313.63;4882622;29;22352;-82
2023/12/09 09:23:10;;;;;;;5.75;3.65;;;;;;;10.17;100.00;96309.72;4887237;29;20048;-81
2023/12/09 09:25:54;;;;;;;8.30;4.10;;;;;;;9.99;100.00;96296.84;4887348;29;20055;-81
2023/12/09 09:28:38;;;;;;;5.57;3.63;;;;;;;10.20;100.00;96293.47;4876672;29;20127;-80
2023/12/09 09:31:22;;;;;;;5.30;4.13;;;;;;;10.25;100.00;96288.25;4882406;29;20044;-81
2023/12/09 09:34:09;;;;;;;6.18;4.68;;;;;;;10.30;100.00;96283.00;4880454;29;20048;-81
2023/12/09 09:36:53;;;;;;;5.57;4.10;;;;;;;10.17;100.00;96260.72;4883370;29;20112;-80
2023/12/09 09:39:36;;;;;;;5.88;3.80;;;;;;;10.28;100.00;96269.38;4884210;29;20088;-80
2023/12/09 09:42:36;;;;;;;5.88;3.25;;;;;;;10.03;100.00;96254.41;4883947;29;20188;-79
2023/12/09 09:45:20;;;;;;;6.70;3.10;;;;;;;10.20;100.00;96246.28;4877599;29;20077;-80
2023/12/09 09:48:12;;;;;;;4.55;2.30;;;;;;;10.17;100.00;96233.69;4886684;29;20063;-80
2023/12/09 09:51:02;;;;;;;10.77;3.03;;;;;;;10.17;100.00;96247.59;4881092;29;20414;-81
2023/12/09 09:53:58;;;;;;;4.65;2.72;;;;;;;10.14;100.00;96227.94;4884721;29;20071;-79
2023/12/09 09:56:42;;;;;;;3.13;2.63;;;;;;;10.06;100.00;96222.41;4886826;29;20055;-79
2023/12/09 09:59:27;;;;;;;4.82;2.50;;;;;;;10.24;100.00;96224.53;4884492;29;20052;-79
2023/12/09 10:02:12;;;;;;;2.80;2.38;;;;;;;10.32;100.00;96220.59;4884393;29;20043;-79
2023/12/09 10:04:56;;;;;;;6.20;2.72;;;;;;;10.26;100.00;96217.19;4882107;29;20044;-80
2023/12/09 10:07:41;;;;;;;2.72;2.10;;;;;;;10.26;100.00;96222.44;4888357;29;20066;-81
2023/12/09 10:10:27;;;;;;;3.45;2.58;;;;;;;10.41;100.00;96219.03;4887327;29;20048;-81
2023/12/09 10:13:11;;;;;;;5.90;2.67;;;;;;;10.33;100.00;96206.44;4884785;29;20059;-80
2023/12/09 10:15:55;;;;;;;2.58;2.28;;;;;;;10.23;100.00;96201.22;4890157;29;20047;-80
2023/12/09 10:18:45;;;;;;;6.13;2.60;;;;;;;10.38;100.00;96187.31;4888458;29;20091;-81
2023/12/09 10:21:29;;;;;;;4.18;3.20;;;;;;;10.53;100.00;96179.47;4887419;29;20159;-81
2023/12/09 10:24:13;;;;;;;4.80;3.13;;;;;;;10.41;100.00;96173.69;4889596;29;20043;-84
2023/12/09 10:26:57;;;;;;;5.40;3.35;;;;;;;10.48;100.00;96173.44;4886140;29;20035;-90
2023/12/09 10:29:44;;;;;;;4.55;3.50;;;;;;;10.60;100.00;96168.69;4890957;29;20169;-88
2023/12/09 10:32:29;;;;;;;6.15;3.90;;;;;;;10.48;100.00;96134.88;4886534;29;20039;-84
2023/12/09 10:35:13;;;;;;;6.35;4.13;;;;;;;10.86;100.00;96150.25;4891799;29;20575;-81
2023/12/09 10:38:00;;;;;;;6.68;4.72;;;;;;;10.90;100.00;96126.88;4890647;29;20088;-80
2023/12/09 10:40:46;;;;;;;10.13;5.13;;;;;;;10.83;100.00;96108.81;4892363;29;20509;-81
2023/12/09 10:43:30;;;;;;;7.28;4.65;;;;;;;10.95;100.00;96116.38;4888881;29;20415;-79
2023/12/09 10:46:14;;;;;;;17.05;7.85;;;;;;;11.04;100.00;96108.75;4887449;29;20092;-79
2023/12/09 10:48:59;;;;;;;11.52;7.28;;;;;;;11.16;100.00;96106.56;4886064;29;20415;-81
2023/12/09 10:51:43;;;;;;;6.63;4.35;;;;;;;11.19;100.00;96100.75;4885683;29;20043;-81
2023/12/09 10:54:28;;;;;;;2.60;2.10;;;;;;;11.23;100.00;96098.38;4880266;29;20181;-79
2023/12/09 10:57:12;;;;;;;2.38;1.92;;;;;;;11.42;100.00;96091.44;4882321;29;20118;-78
2023/12/09 10:59:57;;;;;;;1.55;1.45;;;;;;;11.39;100.00;96083.31;4882731;29;20140;-78
2023/12/09 11:02:43;;;;;;;3.35;1.63;;;;;;;11.51;100.00;96085.63;4881636;29;20049;-77
2023/12/09 11:05:29;;;;;;;1.88;1.67;;;;;;;11.46;100.00;96068.06;4882076;29;20057;-78
2023/12/09 11:08:13;;;;;;;1.70;1.52;;;;;;;11.58;100.00;96068.47;4884033;29;20084;-77
2023/12/09 11:11:01;;;;;;;1.33;1.23;;;;;;;11.64;100.00;96053.47;4876880;29;20048;-79
2023/12/09 11:13:48;;;;;;;3.65;1.65;;;;;;;11.69;100.00;96050.03;4882711;29;20112;-79
2023/12/09 11:16:32;;;;;;;3.67;2.00;;;;;;;11.79;100.00;96036.81;4876563;29;20134;-79
2023/12/09 11:19:16;;;;;;;9.65;3.92;;;;;;;11.91;100.00;96025.13;4877993;29;20052;-80
2023/12/09 11:22:00;;;;;;;1.80;1.60;;;;;;;11.89;100.00;96016.75;4895564;29;20168;-79
2023/12/09 11:24:44;;;;;;;8.13;3.40;;;;;;;11.99;100.00;96012.16;4886864;29;20039;-84
2023/12/09 11:27:28;;;;;;;37.30;6.93;;;;;;;12.03;100.00;96007.19;4876066;29;20048;-82
2023/12/09 11:30:44;;;;;;;11.95;3.92;;;;;;;12.14;100.00;95987.59;4880131;29;20051;-84
2023/12/09 11:33:29;;;;;;;2.65;2.28;;;;;;;12.13;100.00;95986.03;4881336;29;20407;-84
2023/12/09 11:36:15;;;;;;;2.58;2.15;;;;;;;12.17;100.00;95970.47;4885525;29;20122;-82
2023/12/09 11:39:01;;;;;;;5.35;2.22;;;;;;;12.24;100.00;95978.03;4885915;29;20189;-80
2023/12/09 11:41:46;;;;;;;3.63;2.47;;;;;;;12.54;100.00;95965.56;4883555;29;20052;-81
2023/12/09 11:44:31;;;;;;;4.30;2.80;;;;;;;12.43;100.00;95967.53;4886192;29;20078;-81
2023/12/09 11:47:17;;;;;;;6.25;2.83;;;;;;;12.56;100.00;95969.50;4884392;29;20050;-81
2023/12/09 11:50:01;;;;;;;4.00;3.28;;;;;;;12.25;100.00;95967.22;4882907;29;20132;-81
2023/12/09 11:52:47;;;;;;;4.53;3.20;;;;;;;12.47;100.00;95957.25;4880260;29;20100;-81
2023/12/09 11:55:31;;;;;;;3.85;3.22;;;;;;;12.37;100.00;95961.56;4881682;29;20047;-81
2023/12/09 11:58:15;;;;;;;3.58;2.95;;;;;;;12.33;100.00;95962.41;4889082;29;20043;-84
2023/12/09 12:00:59;;;;;;;4.82;3.67;;;;;;;12.51;100.00;95948.50;4882409;29;20043;-84
2023/12/09 12:03:48;;;;;;;6.43;4.20;;;;;;;12.46;100.00;95937.28;4885773;29;20047;-85
2023/12/09 12:06:32;;;;;;;4.93;3.95;;;;;;;12.51;100.00;95940.63;4885863;29;20044;-84
2023/12/09 12:09:17;;;;;;;4.70;3.53;;;;;;;12.64;100.00;95941.75;4888086;29;20540;-84
2023/12/09 12:12:01;;;;;;;2.47;2.28;;;;;;;12.83;100.00;95928.59;4887159;29;20073;-84
2023/12/09 12:14:48;;;;;;;2.50;2.30;;;;;;;12.83;100.00;95917.28;4887768;29;20105;-84
2023/12/09 12:17:39;;;;;;;2.72;2.30;;;;;;;12.81;100.00;95937.84;4884068;29;20048;-85
2023/12/09 12:20:23;;;;;;;1.90;1.80;;;;;;;12.70;100.00;95940.63;4883167;29;20105;-83
2023/12/09 12:23:07;;;;;;;3.05;2.05;;;;;;;12.84;100.00;95937.28;4886382;29;20043;-76
2023/12/09 12:25:58;;;;;;;1.83;1.73;;;;;;;12.86;100.00;95932.50;4885325;29;20052;-77
2023/12/09 12:28:47;;;;;;;1.30;1.20;;;;;;;12.67;100.00;95933.28;4883321;29;20070;-77
2023/12/09 12:31:33;;;;;;;1.85;1.40;;;;;;;12.52;100.00;95917.72;4885487;29;20096;-76
2023/12/09 12:34:18;;;;;;;3.28;1.95;;;;;;;12.10;100.00;95910.34;4885613;29;20120;-77
2023/12/09 12:37:02;;;;;;;2.65;1.50;;;;;;;11.92;100.00;95925.00;4879763;29;20468;-75
2023/12/09 12:39:46;;;;;;;7.57;1.60;;;;;;;11.72;100.00;95899.69;4880832;29;20514;-78
2023/12/09 12:42:30;;;;;;;2.70;1.42;;;;;;;11.53;100.00;95910.91;4880492;29;20561;-77
2023/12/09 12:45:21;;;;;;;4.38;1.75;;;;;;;11.68;100.00;95917.09;4882131;29;20518;-77
2023/12/09 12:48:05;;;;;;;5.13;1.88;;;;;;;11.66;100.00;95925.25;4883514;29;20051;-78